Time,TemperatureF,DewpointF,PressureIn,WindDirection,WindDirectionDegrees,WindSpeedMPH,WindSpeedGustMPH,Humidity,HourlyPrecipIn,Conditions,Clouds,dailyrainin,SolarRadiationWatts/m^2,SoftwareType,DateUTC
2013-04-05 00:23:00,51.0,47.0,-100.00,ESE,117,10.0,19.0,86,0.00,,,0.00,0.000000,,2013-04-05 10:23:00,
2013-04-05 00:32:00,51.0,47.0,-100.00,ESE,117,10.0,19.0,86,0.00,,,0.00,0.000000,,2013-04-05 10:32:00,
2013-04-05 00:42:00,51.0,47.0,-100.00,ESE,117,10.0,19.0,86,0.00,,,0.00,0.000000,,2013-04-05 10:42:00,
2013-04-05 00:52:00,51.0,47.0,-100.00,ESE,117,10.0,19.0,86,0.00,,,0.00,0.000000,,2013-04-05 10:52:00,
2013-04-05 01:22:00,50.0,46.0,-100.00,East,98,6.0,16.0,86,0.00,,,0.00,0.000000,,2013-04-05 11:22:00,
2013-04-05 01:32:00,50.0,46.0,-100.00,East,98,6.0,16.0,86,0.00,,,0.00,0.000000,,2013-04-05 11:32:00,
2013-04-05 01:42:00,50.0,46.0,-100.00,East,98,6.0,16.0,86,0.00,,,0.00,0.000000,,2013-04-05 11:42:00,
2013-04-05 01:52:00,50.0,46.0,-100.00,East,98,6.0,16.0,86,0.00,,,0.00,0.000000,,2013-04-05 11:52:00,
2013-04-05 02:22:00,48.0,45.0,-100.00,SE,128,4.0,9.0,90,0.00,,,0.00,0.000000,,2013-04-05 12:22:00,
2013-04-05 02:32:00,48.0,45.0,-100.00,SE,128,4.0,9.0,90,0.00,,,0.00,0.000000,,2013-04-05 12:32:00,
2013-04-05 02:42:00,48.0,45.0,-100.00,SE,128,4.0,9.0,90,0.00,,,0.00,0.000000,,2013-04-05 12:42:00,
2013-04-05 02:52:00,48.0,45.0,-100.00,SE,128,4.0,9.0,90,0.00,,,0.00,0.000000,,2013-04-05 12:52:00,
2013-04-05 03:22:00,46.0,44.0,-100.00,ESE,106,7.0,9.0,91,0.00,,,0.00,0.000000,,2013-04-05 13:22:00,
2013-04-05 03:32:00,46.0,44.0,-100.00,ESE,106,7.0,9.0,91,0.00,,,0.00,0.000000,,2013-04-05 13:32:00,
2013-04-05 03:42:00,46.0,44.0,-100.00,ESE,106,7.0,9.0,91,0.00,,,0.00,0.000000,,2013-04-05 13:42:00,
2013-04-05 03:52:00,46.0,44.0,-100.00,ESE,106,7.0,9.0,91,0.00,,,0.00,0.000000,,2013-04-05 13:52:00,
2013-04-05 04:22:00,48.0,46.0,-100.00,ESE,102,9.0,15.0,93,0.00,,,0.00,0.000000,,2013-04-05 14:22:00,
2013-04-05 04:36:00,48.0,46.0,-100.00,ESE,102,9.0,15.0,93,0.00,,,0.00,0.000000,,2013-04-05 14:36:00,
2013-04-05 04:42:00,48.0,46.0,-100.00,ESE,102,9.0,15.0,93,0.00,,,0.00,0.000000,,2013-04-05 14:42:00,
2013-04-05 04:52:00,48.0,46.0,-100.00,ESE,102,9.0,15.0,93,0.00,,,0.00,0.000000,,2013-04-05 14:52:00,
2013-04-05 05:23:00,49.0,46.0,-100.00,ESE,108,12.0,19.0,89,0.00,,,-99.99,0.000000,,2013-04-05 15:23:00,
2013-04-05 05:33:00,49.0,46.0,-100.00,ESE,108,12.0,19.0,89,0.00,,,-99.99,0.000000,,2013-04-05 15:33:00,
2013-04-05 05:42:00,49.0,46.0,-100.00,ESE,108,12.0,19.0,89,0.00,,,-99.99,0.000000,,2013-04-05 15:42:00,
2013-04-05 05:52:00,49.0,46.0,-100.00,ESE,108,12.0,19.0,89,0.00,,,-99.99,0.000000,,2013-04-05 15:52:00,
2013-04-05 06:23:00,47.0,45.0,-100.00,ESE,104,18.0,27.0,91,0.00,,,0.00,0.000000,,2013-04-05 16:23:00,
2013-04-05 06:32:00,47.0,45.0,-100.00,ESE,104,18.0,27.0,91,0.00,,,0.00,0.000000,,2013-04-05 16:32:00,
2013-04-05 06:42:00,47.0,45.0,-100.00,ESE,104,18.0,27.0,91,0.00,,,0.00,0.000000,,2013-04-05 16:42:00,
2013-04-05 06:52:00,47.0,45.0,-100.00,ESE,104,18.0,27.0,91,0.00,,,0.00,0.000000,,2013-04-05 16:52:00,
2013-04-05 07:23:00,49.0,46.0,-100.00,ESE,111,14.0,26.0,88,0.00,,,0.00,34.000000,,2013-04-05 17:23:00,
2013-04-05 07:32:00,49.0,46.0,-100.00,ESE,111,14.0,26.0,88,0.00,,,0.00,34.000000,,2013-04-05 17:32:00,
2013-04-05 07:45:00,49.0,46.0,-100.00,ESE,111,14.0,26.0,88,0.00,,,0.00,34.000000,,2013-04-05 17:45:00,
2013-04-05 07:52:00,49.0,46.0,-100.00,ESE,111,14.0,26.0,88,0.00,,,0.00,34.000000,,2013-04-05 17:52:00,
2013-04-05 08:22:00,55.0,49.0,-100.00,ESE,113,19.0,30.0,81,0.00,,,0.00,247.000000,,2013-04-05 18:22:00,
2013-04-05 08:32:00,55.0,49.0,-100.00,ESE,113,19.0,30.0,81,0.00,,,0.00,247.000000,,2013-04-05 18:32:00,
2013-04-05 08:42:00,55.0,49.0,-100.00,ESE,113,19.0,30.0,81,0.00,,,0.00,247.000000,,2013-04-05 18:42:00,
2013-04-05 08:52:00,55.0,49.0,-100.00,ESE,113,19.0,30.0,81,0.00,,,0.00,247.000000,,2013-04-05 18:52:00,
2013-04-05 09:22:00,58.0,50.0,-100.00,East,101,18.0,30.0,76,0.00,,,0.00,597.000000,,2013-04-05 19:22:00,
2013-04-05 09:32:00,58.0,50.0,-100.00,East,101,18.0,30.0,76,0.00,,,0.00,597.000000,,2013-04-05 19:32:00,
2013-04-05 09:42:00,58.0,50.0,-100.00,East,101,18.0,30.0,76,0.00,,,0.00,597.000000,,2013-04-05 19:42:00,
2013-04-05 09:52:00,58.0,50.0,-100.00,East,101,18.0,30.0,76,0.00,,,0.00,597.000000,,2013-04-05 19:52:00,
2013-04-05 10:22:00,60.0,50.0,-100.00,East,92,24.0,34.0,70,0.00,,,0.00,882.000000,,2013-04-05 20:22:00,
2013-04-05 10:32:00,60.0,50.0,-100.00,East,92,24.0,34.0,70,0.00,,,0.00,882.000000,,2013-04-05 20:32:00,
2013-04-05 10:42:00,60.0,50.0,-100.00,East,92,24.0,34.0,70,0.00,,,0.00,882.000000,,2013-04-05 20:42:00,
2013-04-05 10:52:00,60.0,50.0,-100.00,East,92,24.0,34.0,70,0.00,,,0.00,882.000000,,2013-04-05 20:52:00,
2013-04-05 11:23:00,62.0,47.0,-100.00,East,94,21.0,39.0,57,0.00,,,0.00,1041.000000,,2013-04-05 21:23:00,
2013-04-05 11:33:00,62.0,47.0,-100.00,East,94,21.0,39.0,57,0.00,,,0.00,1041.000000,,2013-04-05 21:33:00,
2013-04-05 11:42:00,62.0,47.0,-100.00,East,94,21.0,39.0,57,0.00,,,0.00,1041.000000,,2013-04-05 21:42:00,
2013-04-05 11:53:00,62.0,47.0,-100.00,East,94,21.0,39.0,57,0.00,,,0.00,1041.000000,,2013-04-05 21:53:00,
2013-04-05 12:23:00,65.0,48.0,-100.00,East,86,18.0,35.0,55,0.00,,,0.00,1183.000000,,2013-04-05 22:23:00,
2013-04-05 12:33:00,65.0,48.0,-100.00,East,86,18.0,35.0,55,0.00,,,0.00,1183.000000,,2013-04-05 22:33:00,
2013-04-05 12:42:00,65.0,48.0,-100.00,East,86,18.0,35.0,55,0.00,,,0.00,1183.000000,,2013-04-05 22:42:00,
2013-04-05 12:52:00,65.0,48.0,-100.00,East,86,18.0,35.0,55,0.00,,,0.00,1183.000000,,2013-04-05 22:52:00,
2013-04-05 13:22:00,67.0,50.0,-100.00,East,89,14.0,31.0,54,0.00,,,0.00,1267.000000,,2013-04-05 23:22:00,
2013-04-05 13:32:00,67.0,50.0,-100.00,East,89,14.0,31.0,54,0.00,,,0.00,1267.000000,,2013-04-05 23:32:00,
2013-04-05 13:42:00,67.0,50.0,-100.00,East,89,14.0,31.0,54,0.00,,,0.00,1267.000000,,2013-04-05 23:42:00,
2013-04-05 13:52:00,67.0,50.0,-100.00,East,89,14.0,31.0,54,0.00,,,0.00,1267.000000,,2013-04-05 23:52:00,
2013-04-05 14:22:00,69.0,51.0,-100.00,East,84,13.0,26.0,52,0.00,,,0.00,1273.000000,,2013-04-06 00:22:00,
2013-04-05 14:32:00,69.0,51.0,-100.00,East,84,13.0,26.0,52,0.00,,,0.00,1273.000000,,2013-04-06 00:32:00,
2013-04-05 14:42:00,69.0,51.0,-100.00,East,84,13.0,26.0,52,0.00,,,0.00,1273.000000,,2013-04-06 00:42:00,
2013-04-05 14:52:00,69.0,51.0,-100.00,East,84,13.0,26.0,52,0.00,,,0.00,1273.000000,,2013-04-06 00:52:00,
2013-04-05 15:22:00,64.0,51.0,-100.00,NNE,25,5.0,23.0,62,0.00,,,0.00,524.000000,,2013-04-06 01:22:00,
2013-04-05 15:32:00,64.0,51.0,-100.00,NNE,25,5.0,23.0,62,0.00,,,0.00,524.000000,,2013-04-06 01:32:00,
2013-04-05 15:42:00,64.0,51.0,-100.00,NNE,25,5.0,23.0,62,0.00,,,0.00,524.000000,,2013-04-06 01:42:00,
2013-04-05 15:52:00,64.0,51.0,-100.00,NNE,25,5.0,23.0,62,0.00,,,0.00,524.000000,,2013-04-06 01:52:00,
2013-04-05 16:22:00,62.0,48.0,-100.00,East,89,10.0,19.0,60,0.00,,,0.00,291.000000,,2013-04-06 02:22:00,
2013-04-05 16:32:00,62.0,48.0,-100.00,East,89,10.0,19.0,60,0.00,,,0.00,291.000000,,2013-04-06 02:32:00,
2013-04-05 16:42:00,62.0,48.0,-100.00,East,89,10.0,19.0,60,0.00,,,0.00,291.000000,,2013-04-06 02:42:00,
2013-04-05 16:52:00,62.0,48.0,-100.00,East,89,10.0,19.0,60,0.00,,,0.00,291.000000,,2013-04-06 02:52:00,
2013-04-05 17:22:00,62.0,49.0,-100.00,ESE,105,14.0,26.0,62,0.00,,,0.00,340.000000,,2013-04-06 03:22:00,
2013-04-05 17:33:00,62.0,49.0,-100.00,ESE,105,14.0,26.0,62,0.00,,,0.00,340.000000,,2013-04-06 03:33:00,
2013-04-05 17:42:00,62.0,49.0,-100.00,ESE,105,14.0,26.0,62,0.00,,,0.00,340.000000,,2013-04-06 03:42:00,
2013-04-05 17:52:00,62.0,49.0,-100.00,ESE,105,14.0,26.0,62,0.00,,,0.00,340.000000,,2013-04-06 03:52:00,
2013-04-05 18:23:00,57.0,48.0,-100.00,East,86,12.0,23.0,72,0.00,,,0.00,223.000000,,2013-04-06 04:23:00,
2013-04-05 18:32:00,57.0,48.0,-100.00,East,86,12.0,23.0,72,0.00,,,0.00,223.000000,,2013-04-06 04:32:00,
2013-04-05 18:42:00,57.0,48.0,-100.00,East,86,12.0,23.0,72,0.00,,,0.00,223.000000,,2013-04-06 04:42:00,
2013-04-05 18:52:00,57.0,48.0,-100.00,East,86,12.0,23.0,72,0.00,,,0.00,223.000000,,2013-04-06 04:52:00,
2013-04-05 19:22:00,54.0,48.0,-100.00,East,100,15.0,23.0,80,0.00,,,0.00,20.000000,,2013-04-06 05:22:00,
2013-04-05 19:32:00,54.0,48.0,-100.00,East,100,15.0,23.0,80,0.00,,,0.00,20.000000,,2013-04-06 05:32:00,
2013-04-05 19:42:00,54.0,48.0,-100.00,East,100,15.0,23.0,80,0.00,,,0.00,20.000000,,2013-04-06 05:42:00,
2013-04-05 19:51:00,54.0,48.0,-100.00,East,100,15.0,23.0,80,0.00,,,0.00,20.000000,,2013-04-06 05:51:00,
2013-04-05 20:22:00,52.0,47.0,-100.00,ESE,104,18.0,27.0,83,0.00,,,0.00,0.000000,,2013-04-06 06:22:00,
2013-04-05 20:32:00,52.0,47.0,-100.00,ESE,104,18.0,27.0,83,0.00,,,0.00,0.000000,,2013-04-06 06:32:00,
2013-04-05 20:42:00,52.0,47.0,-100.00,ESE,104,18.0,27.0,83,0.00,,,0.00,0.000000,,2013-04-06 06:42:00,
2013-04-05 20:52:00,52.0,47.0,-100.00,ESE,104,18.0,27.0,83,0.00,,,0.00,0.000000,,2013-04-06 06:52:00,
2013-04-05 21:22:00,52.0,49.0,-100.00,ESE,104,20.0,31.0,88,0.00,,,0.00,0.000000,,2013-04-06 07:22:00,
2013-04-05 21:32:00,52.0,49.0,-100.00,ESE,104,20.0,31.0,88,0.00,,,0.00,0.000000,,2013-04-06 07:32:00,
2013-04-05 21:43:00,52.0,49.0,-100.00,ESE,104,20.0,31.0,88,0.00,,,0.00,0.000000,,2013-04-06 07:43:00,
2013-04-05 21:52:00,52.0,49.0,-100.00,ESE,104,20.0,31.0,88,0.00,,,0.00,0.000000,,2013-04-06 07:52:00,
2013-04-05 22:22:00,50.0,46.0,-100.00,ESE,106,17.0,30.0,85,0.00,,,0.00,0.000000,,2013-04-06 08:22:00,
2013-04-05 22:32:00,50.0,46.0,-100.00,ESE,106,17.0,30.0,85,0.00,,,0.00,0.000000,,2013-04-06 08:32:00,
2013-04-05 22:42:00,50.0,46.0,-100.00,ESE,106,17.0,30.0,85,0.00,,,0.00,0.000000,,2013-04-06 08:42:00,
2013-04-05 22:52:00,50.0,46.0,-100.00,ESE,106,17.0,30.0,85,0.00,,,0.00,0.000000,,2013-04-06 08:52:00,
2013-04-05 23:22:00,50.0,47.0,-100.00,East,97,15.0,26.0,88,0.00,,,0.00,0.000000,,2013-04-06 09:22:00,
2013-04-05 23:32:00,50.0,47.0,-100.00,East,97,15.0,26.0,88,0.00,,,0.00,0.000000,,2013-04-06 09:32:00,
2013-04-05 23:42:00,50.0,47.0,-100.00,East,97,15.0,26.0,88,0.00,,,0.00,0.000000,,2013-04-06 09:42:00,
2013-04-05 23:52:00,50.0,47.0,-100.00,East,97,15.0,26.0,88,0.00,,,0.00,0.000000,,2013-04-06 09:52:00,